15°C
Porth, Newquay, Cornwall. UK  Tell A Friend
 Ad **Ad
Updated18/08/2017 05:45 
 


More METAR Reports From


Metar Station     Metar Station     Metar Station     Metar Station     Metar Station
EGBB Birmingham     EGBE Coventry     EGLL London Heathrow     EGKK London Gatwick     EGGP Liverpool
EGGW Luton     EGNX East Midlands     EGLC London City     EGCC Mancester Intl     EGSS Stanstead
Local Metars Here                                
EGBB - Birmingham Airpo, United Kingdom
Updated: 18/08/2017 05:20
Mostly Cloudy
Mostly Cloudy
 Wind from SSW
Wind: SSW 7 mph , 11 km/h, 6 kts
Temperature: 14°C
Dew Point: 13°C
Humidity: 94%
Barometer: 1007 hPa
Clouds: Mostly Cloudy
Visibility: 6 miles , 10 km
Cloud details: Partly Cloudy 975 m
Mostly Cloudy 1158 m
2017/08/18 04:20 EGBB 180420Z 20006KT 170V240 9999 SCT032 BKN038 14/13 Q1007
EGBE - Coventry Airport, United Kingdom
Updated: 18/07/2017 14:50

NOT Current
Clear
Clear
 Wind from E
Wind: E 16 mph , 26 km/h, 14 kts
Temperature: 27°C
Heat Index: 27°C
Dew Point: 14°C
Humidity: 45%
Barometer: 1015 hPa
Summary: Clear
Visibility: greater than 7 miles , 10 km
2017/07/18 13:50 EGBE 181350Z 10014KT 060V120 CAVOK 27/14 Q1015
 
EGLL - London/Heathrow, United Kingdom
Updated: 18/08/2017 05:50
Light rain, Thunderstorm
Light rain, Thunderstorm
 Wind from WSW
Wind: WSW 12 mph , 19 km/h, 10 kts
Temperature: 16°C
Dew Point: 14°C
Humidity: 88%
Barometer: 1009 hPa
Summary: Light Rain
Clouds: Thunderstorm
Visibility: 6 miles , 10 km
2017/08/18 04:50 EGLL 180450Z AUTO 24010KT 9999 -RA //////CB 16/14 Q1009 RERA
EGKK - London/Gatwick A, United Kingdom
Updated: 18/08/2017 05:50
Partly Cloudy
Partly Cloudy
 Wind from SW
Wind: SW 14 mph , 22 km/h, 12 kts
Temperature: 16°C
Dew Point: 13°C
Humidity: 83%
Barometer: 1010 hPa
Clouds: Partly Cloudy
Visibility: 6 miles , 10 km
Cloud details: Partly Cloudy 427 m
2017/08/18 04:50 EGKK 180450Z 23012KT 9999 SCT014 16/13 Q1010
 
EGGP - Liverpool Airpor, United Kingdom
Updated: 18/08/2017 05:50
Partly Cloudy
Partly Cloudy
 Wind from WSW
Wind: WSW 12 mph , 19 km/h, 10 kts
Temperature: 13°C
Dew Point: 11°C
Humidity: 88%
Barometer: 1006 hPa
Clouds: Partly Cloudy
Visibility: 6 miles , 10 km
Cloud details: Few Clouds 640 m
Partly Cloudy 1280 m
2017/08/18 04:50 EGGP 180450Z 25010KT 9999 FEW021 SCT042 13/11 Q1006
EGGW - Luton Airport, United Kingdom
Updated: 18/08/2017 05:50
Few Clouds
Few Clouds
 Wind from SSW
Wind: SSW 8 mph , 13 km/h, 7 kts
Temperature: 14°C
Dew Point: 14°C
Humidity: 100%
Barometer: 1009 hPa
Clouds: Few Clouds
Visibility: 6 miles , 10 km
Cloud details: Few Clouds 1036 m
2017/08/18 04:50 EGGW 180450Z AUTO 20007KT 9999 FEW034 14/14 Q1009
 
EGNX - East Midlands, United Kingdom
Updated: 18/08/2017 05:50
Few Clouds
Few Clouds
 Wind from SSW
Wind: SSW 14 mph , 22 km/h, 12 kts
Temperature: 14°C
Dew Point: 12°C
Humidity: 88%
Barometer: 1006 hPa
Clouds: Few Clouds
Visibility: 6 miles , 10 km
Cloud details: Few Clouds 1097 m
2017/08/18 04:50 EGNX 180450Z 20012KT 9999 FEW036 14/12 Q1006
EGLC - London City Airp, United Kingdom
Updated: 18/08/2017 05:50
Light rain, Thunderstorm
Light rain, Thunderstorm
 Wind from SSW
Wind: SSW 6 mph , 9 km/h, 5 kts
Temperature: 17°C
Dew Point: 15°C
Humidity: 88%
Barometer: 1009 hPa
Summary: Light Rain
Clouds: Thunderstorm
Visibility: 4 miles , 7 km
Cloud details: Few Clouds 549 m
Partly Cloudy 762 m
Mostly Cloudy 914 m
2017/08/18 04:50 EGLC 180450Z AUTO 21005KT 180V260 7000 -RA FEW018/// SCT025/// BKN030/// //////CB 17/15 Q1009
 
EGCC - Manchester Intl, United Kingdom
Updated: 18/08/2017 05:20
Thunderstorm
Thunderstorm
 Wind from SSW
Wind: SSW 8 mph , 13 km/h, 7 kts
Temperature: 13°C
Dew Point: 12°C
Humidity: 94%
Barometer: 1005 hPa
Clouds: Thunderstorm
Visibility: 6 miles , 10 km
Cloud details: Partly Cloudy 792 m
Partly Cloudy 975 m
2017/08/18 04:20 EGCC 180420Z AUTO 21007KT 180V240 9999 SCT026/// SCT032/// //////CB 13/12 Q1005 NOSIG
EGSS - Stansted Airport, United Kingdom
Updated: 18/08/2017 05:50
Mostly Cloudy
Mostly Cloudy
 Wind from SSW
Wind: SSW 8 mph , 13 km/h, 7 kts
Temperature: 15°C
Dew Point: 14°C
Humidity: 94%
Barometer: 1009 hPa
Clouds: Mostly Cloudy
Visibility: 6 miles , 10 km
Cloud details: Mostly Cloudy 396 m
2017/08/18 04:50 EGSS 180450Z AUTO 20007KT 9999 BKN013 15/14 Q1009

Metar, brief description

METAR is a format for reporting weather information. A METAR weather report is predominantly used by pilots in fulfillment of a part of a pre-flight weather briefing, and by meteorologists, who use aggregated METAR information to assist in weather forecasting.

Raw METAR is the most popular format in the world for the transmission of weather data. Each METAR report contains essential information about the current weather conditions: Temperature, Dew Point, Barometric Pressure, Wind Speed and Direction, Visibility, Clouds Cover, Current Weather (Rain, Thunderstorms, Hail, Snow and so on...), here is an example of a raw metar report for EGHQ (Newquay airport).
METAR not available